Time;durP1;ratioP1;P1;durP2;ratioP2;P2;SDS_P1;SDS_P2;PMS_P1;PMS_P2;Temp;Humidity;BMP_temperature;BMP_pressure;BME280_temperature;BME280_humidity;BME280_pressure;Samples;Min_cycle;Max_cycle;Signal;HPM_P1;HPM_P2
2023/04/19 00:02:07;;;;;;;21.48;16.17;;;;;;;;;;5039965;28;20416;-72
2023/04/19 00:04:36;;;;;;;23.73;16.13;;;;;;;;;;5010079;28;20155;-70
2023/04/19 00:07:02;;;;;;;21.60;16.60;;;;;;;;;;5037344;28;20043;-70
2023/04/19 00:09:27;;;;;;;21.73;16.77;;;;;;;;;;5038982;28;20435;-71
2023/04/19 00:11:53;;;;;;;21.15;16.50;;;;;;;;;;5037919;28;20263;-69
2023/04/19 00:14:18;;;;;;;19.73;16.27;;;;;;;;;;5039508;28;20069;-71
2023/04/19 00:16:43;;;;;;;24.52;17.48;;;;;;;;;;5039413;28;20437;-71
2023/04/19 00:19:09;;;;;;;21.88;16.65;;;;;;;;;;5039587;28;20085;-70
2023/04/19 00:21:34;;;;;;;25.60;17.75;;;;;;;;;;5026074;28;20484;-71
2023/04/19 00:24:02;;;;;;;24.23;18.13;;;;;;;;;;5012419;28;20039;-72
2023/04/19 00:26:27;;;;;;;21.75;16.85;;;;;;;;;;5034737;28;20032;-70
2023/04/19 00:28:55;;;;;;;23.30;17.35;;;;;;;;;;5039065;28;20300;-71
2023/04/19 00:31:20;;;;;;;22.55;16.30;;;;;;;;;;5035542;28;20056;-74
2023/04/19 00:33:45;;;;;;;20.88;16.05;;;;;;;;;;5022947;28;20040;-70
2023/04/19 00:36:11;;;;;;;20.65;15.55;;;;;;;;;;5014507;28;20044;-70
2023/04/19 00:38:38;;;;;;;21.58;16.48;;;;;;;;;;5020904;28;20161;-69
2023/04/19 00:41:06;;;;;;;22.23;16.65;;;;;;;;;;5036131;28;20645;-69
2023/04/19 00:43:33;;;;;;;20.30;15.68;;;;;;;;;;5018735;28;20090;-70
2023/04/19 00:45:59;;;;;;;20.42;16.25;;;;;;;;;;5039030;28;20827;-71
2023/04/19 00:48:24;;;;;;;22.20;16.52;;;;;;;;;;5037127;28;20829;-69
2023/04/19 00:50:50;;;;;;;20.80;16.05;;;;;;;;;;5038430;28;20362;-68
2023/04/19 00:53:15;;;;;;;22.92;15.80;;;;;;;;;;5037291;28;20064;-69
2023/04/19 00:55:41;;;;;;;23.25;16.35;;;;;;;;;;5021949;28;20036;-69
2023/04/19 00:58:08;;;;;;;23.33;16.75;;;;;;;;;;5035391;28;20381;-70
2023/04/19 01:00:34;;;;;;;24.25;17.35;;;;;;;;;;5021537;28;20162;-69
2023/04/19 01:02:59;;;;;;;24.83;17.17;;;;;;;;;;5036859;28;20560;-69
2023/04/19 01:05:25;;;;;;;24.40;18.08;;;;;;;;;;5038290;28;20368;-69
2023/04/19 01:07:50;;;;;;;25.83;19.23;;;;;;;;;;5037389;28;20036;-69
2023/04/19 01:10:16;;;;;;;25.23;18.77;;;;;;;;;;5043241;28;20482;-69
2023/04/19 01:12:43;;;;;;;27.05;19.33;;;;;;;;;;5039431;28;20063;-69
2023/04/19 01:15:09;;;;;;;27.17;19.42;;;;;;;;;;5041672;28;20827;-69
2023/04/19 01:17:37;;;;;;;26.52;18.48;;;;;;;;;;5023545;28;20043;-70
2023/04/19 01:20:05;;;;;;;28.98;20.17;;;;;;;;;;5027557;28;20076;-70
2023/04/19 01:22:30;;;;;;;24.52;18.98;;;;;;;;;;5040964;28;20059;-68
2023/04/19 01:24:56;;;;;;;27.00;19.10;;;;;;;;;;5043192;28;20028;-68
2023/04/19 01:27:22;;;;;;;25.05;18.45;;;;;;;;;;5040739;28;20040;-68
2023/04/19 01:29:48;;;;;;;27.60;19.20;;;;;;;;;;5022020;28;20052;-68
2023/04/19 01:32:16;;;;;;;25.92;18.45;;;;;;;;;;5041600;28;20156;-69
2023/04/19 01:34:41;;;;;;;24.40;19.02;;;;;;;;;;5038965;28;20040;-68
2023/04/19 01:37:09;;;;;;;25.98;18.92;;;;;;;;;;5019173;28;20393;-69
2023/04/19 01:39:34;;;;;;;25.77;19.00;;;;;;;;;;5040153;28;20444;-69
2023/04/19 01:42:03;;;;;;;26.38;18.65;;;;;;;;;;5040700;28;20135;-69
2023/04/19 01:44:28;;;;;;;25.90;18.60;;;;;;;;;;5023257;28;20060;-68
2023/04/19 01:46:56;;;;;;;27.73;18.38;;;;;;;;;;5041412;28;20787;-68
2023/04/19 01:49:21;;;;;;;27.92;18.52;;;;;;;;;;5040046;28;20063;-69
2023/04/19 01:51:46;;;;;;;28.98;19.55;;;;;;;;;;5040874;28;20177;-68
2023/04/19 01:54:11;;;;;;;24.88;18.23;;;;;;;;;;5024206;28;20031;-71
2023/04/19 01:56:42;;;;;;;23.25;18.20;;;;;;;;;;5039310;28;20043;-70
2023/04/19 01:59:09;;;;;;;25.80;18.52;;;;;;;;;;5039209;28;20043;-69
2023/04/19 02:01:34;;;;;;;25.67;17.75;;;;;;;;;;5040903;28;20032;-68
2023/04/19 02:04:01;;;;;;;27.25;19.02;;;;;;;;;;5025309;28;20647;-69
2023/04/19 02:06:26;;;;;;;26.58;18.20;;;;;;;;;;5023418;28;20347;-68
2023/04/19 02:08:51;;;;;;;26.48;18.17;;;;;;;;;;5040706;28;20067;-70
2023/04/19 02:11:17;;;;;;;26.10;19.02;;;;;;;;;;5039264;28;20051;-68
2023/04/19 02:13:42;;;;;;;28.35;18.15;;;;;;;;;;5040895;28;20032;-68
2023/04/19 02:16:08;;;;;;;26.45;18.67;;;;;;;;;;5005431;28;20082;-68
2023/04/19 02:18:37;;;;;;;25.73;19.35;;;;;;;;;;5042267;28;20044;-68
2023/04/19 02:21:03;;;;;;;27.45;19.40;;;;;;;;;;5037227;28;20062;-70
2023/04/19 02:23:28;;;;;;;28.98;19.42;;;;;;;;;;5040524;28;20037;-69
2023/04/19 02:25:53;;;;;;;28.67;20.30;;;;;;;;;;5022219;28;20032;-68
2023/04/19 02:28:19;;;;;;;28.88;19.83;;;;;;;;;;5040154;28;20095;-68
2023/04/19 02:30:46;;;;;;;28.27;21.05;;;;;;;;;;5039778;28;20472;-69
2023/04/19 02:33:11;;;;;;;30.77;21.08;;;;;;;;;;5039150;28;20740;-68
2023/04/19 02:35:39;;;;;;;29.23;20.70;;;;;;;;;;5023055;28;20345;-68
2023/04/19 02:38:04;;;;;;;28.35;21.55;;;;;;;;;;5041438;28;20369;-69
2023/04/19 02:40:30;;;;;;;30.88;22.48;;;;;;;;;;5041507;28;20412;-69
2023/04/19 02:42:55;;;;;;;33.15;21.42;;;;;;;;;;5020652;28;20032;-69
2023/04/19 02:45:23;;;;;;;33.33;22.35;;;;;;;;;;5038316;28;20044;-70
2023/04/19 02:47:48;;;;;;;33.05;21.67;;;;;;;;;;5037598;28;20339;-71
2023/04/19 02:50:15;;;;;;;30.80;21.60;;;;;;;;;;5039523;28;20579;-69
2023/04/19 02:52:40;;;;;;;32.47;21.13;;;;;;;;;;5040899;28;20146;-72
2023/04/19 02:55:05;;;;;;;33.13;21.70;;;;;;;;;;5019108;28;20041;-69
2023/04/19 02:57:31;;;;;;;34.45;22.42;;;;;;;;;;5024657;28;20488;-69
2023/04/19 02:59:56;;;;;;;31.80;23.20;;;;;;;;;;5039432;28;20146;-69
2023/04/19 03:02:21;;;;;;;31.63;22.35;;;;;;;;;;5036423;28;20509;-69
2023/04/19 03:04:47;;;;;;;30.58;21.65;;;;;;;;;;5021746;28;20344;-69
2023/04/19 03:07:17;;;;;;;31.00;21.92;;;;;;;;;;5037715;28;20174;-68
2023/04/19 03:09:42;;;;;;;30.88;21.23;;;;;;;;;;5037611;28;20062;-68
2023/04/19 03:12:07;;;;;;;27.73;21.80;;;;;;;;;;5025522;28;20044;-70
2023/04/19 03:14:35;;;;;;;32.85;21.73;;;;;;;;;;5040056;28;20031;-69
2023/04/19 03:17:01;;;;;;;28.67;21.30;;;;;;;;;;5037318;28;20140;-69
2023/04/19 03:19:26;;;;;;;29.00;22.00;;;;;;;;;;5018884;28;20028;-69
2023/04/19 03:21:53;;;;;;;31.67;21.33;;;;;;;;;;5017555;28;20055;-68
2023/04/19 03:24:19;;;;;;;30.27;21.35;;;;;;;;;;5037180;28;20399;-68
2023/04/19 03:26:47;;;;;;;30.58;20.23;;;;;;;;;;5038497;28;20037;-69
2023/04/19 03:29:14;;;;;;;28.08;20.15;;;;;;;;;;5035424;28;20446;-70
2023/04/19 03:31:39;;;;;;;29.05;21.17;;;;;;;;;;5036449;28;20051;-68
2023/04/19 03:34:04;;;;;;;29.33;19.75;;;;;;;;;;5035981;28;20032;-68
2023/04/19 03:36:30;;;;;;;25.75;19.52;;;;;;;;;;5000787;28;20043;-70
2023/04/19 03:38:55;;;;;;;28.05;19.23;;;;;;;;;;5038848;28;20677;-68
2023/04/19 03:41:25;;;;;;;29.10;19.35;;;;;;;;;;5039307;28;21754;-70
2023/04/19 03:43:50;;;;;;;29.15;19.50;;;;;;;;;;5038068;28;20062;-68
2023/04/19 03:46:15;;;;;;;24.92;18.15;;;;;;;;;;5017132;28;20041;-68
2023/04/19 03:48:41;;;;;;;25.85;17.65;;;;;;;;;;5036630;28;20684;-70
2023/04/19 03:51:06;;;;;;;25.25;17.75;;;;;;;;;;5037263;28;20136;-68
2023/04/19 03:53:31;;;;;;;21.90;17.00;;;;;;;;;;5014819;28;20078;-68
2023/04/19 03:55:57;;;;;;;23.73;16.83;;;;;;;;;;5040890;28;20304;-70
2023/04/19 03:58:22;;;;;;;27.23;17.15;;;;;;;;;;5036668;28;20037;-70
2023/04/19 04:00:47;;;;;;;23.20;15.50;;;;;;;;;;5038850;28;20032;-72
2023/04/19 04:03:13;;;;;;;22.58;15.38;;;;;;;;;;5037117;28;20032;-71
2023/04/19 04:05:40;;;;;;;20.40;14.43;;;;;;;;;;5038151;28;20036;-74
2023/04/19 04:08:05;;;;;;;20.75;15.00;;;;;;;;;;5013965;28;20032;-74
2023/04/19 04:10:30;;;;;;;20.50;14.82;;;;;;;;;;5016865;28;20032;-71
2023/04/19 04:12:55;;;;;;;20.75;14.80;;;;;;;;;;5036820;28;20941;-70
2023/04/19 04:15:23;;;;;;;20.10;13.18;;;;;;;;;;5037672;28;20412;-71
2023/04/19 04:17:49;;;;;;;18.33;12.98;;;;;;;;;;5035901;28;20036;-71
2023/04/19 04:20:15;;;;;;;17.65;12.90;;;;;;;;;;5037257;28;20575;-72
2023/04/19 04:22:45;;;;;;;19.98;13.45;;;;;;;;;;5026170;28;20032;-72
2023/04/19 04:25:11;;;;;;;17.05;12.18;;;;;;;;;;5020223;28;20047;-72
2023/04/19 04:27:36;;;;;;;17.42;11.85;;;;;;;;;;5016564;28;20044;-70
2023/04/19 04:30:02;;;;;;;17.75;12.07;;;;;;;;;;5037728;28;20039;-70
2023/04/19 04:32:27;;;;;;;16.55;12.30;;;;;;;;;;5036433;28;20627;-70
2023/04/19 04:34:54;;;;;;;17.77;12.50;;;;;;;;;;5033968;28;20036;-68
2023/04/19 04:37:20;;;;;;;16.67;12.50;;;;;;;;;;5020912;28;20531;-69
2023/04/19 04:39:45;;;;;;;17.25;12.57;;;;;;;;;;5052336;28;20039;-69
2023/04/19 04:42:12;;;;;;;17.77;12.68;;;;;;;;;;5058453;28;20089;-69
2023/04/19 04:44:38;;;;;;;19.30;13.20;;;;;;;;;;5057471;28;20044;-67
2023/04/19 04:47:06;;;;;;;17.23;12.30;;;;;;;;;;5026632;28;20792;-68
2023/04/19 04:49:31;;;;;;;19.27;12.60;;;;;;;;;;5044948;28;20294;-69
2023/04/19 04:51:57;;;;;;;17.38;12.25;;;;;;;;;;5040249;28;20618;-69
2023/04/19 04:54:22;;;;;;;17.90;11.93;;;;;;;;;;5062130;28;20193;-69
2023/04/19 04:56:48;;;;;;;18.05;12.15;;;;;;;;;;5023973;28;20064;-70
2023/04/19 04:59:13;;;;;;;19.63;11.98;;;;;;;;;;5060010;28;20036;-70
2023/04/19 05:01:38;;;;;;;18.27;12.70;;;;;;;;;;5061285;28;20040;-71
2023/04/19 05:04:06;;;;;;;18.42;11.55;;;;;;;;;;5037080;28;20729;-71
2023/04/19 05:06:31;;;;;;;18.50;11.70;;;;;;;;;;5025851;28;20047;-70
2023/04/19 05:08:56;;;;;;;16.75;11.25;;;;;;;;;;5043355;28;20046;-70
2023/04/19 05:11:22;;;;;;;16.40;10.70;;;;;;;;;;5060330;28;20565;-69
2023/04/19 05:13:49;;;;;;;16.45;11.20;;;;;;;;;;5059459;28;20028;-71
2023/04/19 05:16:15;;;;;;;16.38;11.32;;;;;;;;;;5059905;28;20035;-71
2023/04/19 05:18:40;;;;;;;16.77;11.50;;;;;;;;;;5037901;28;20039;-69
2023/04/19 05:21:09;;;;;;;16.65;11.70;;;;;;;;;;5061062;28;20043;-69
2023/04/19 05:23:39;;;;;;;14.57;11.03;;;;;;;;;;5058116;28;20168;-68
2023/04/19 05:26:11;;;;;;;16.00;10.52;;;;;;;;;;5061292;28;20528;-69
2023/04/19 05:28:36;;;;;;;14.50;10.38;;;;;;;;;;5037887;28;20040;-69
2023/04/19 05:31:01;;;;;;;19.65;10.23;;;;;;;;;;5014960;28;20040;-68
2023/04/19 05:33:27;;;;;;;14.27;10.57;;;;;;;;;;5030182;28;20172;-69
2023/04/19 05:35:52;;;;;;;16.50;9.90;;;;;;;;;;5057622;28;20301;-69
2023/04/19 05:38:17;;;;;;;13.60;10.13;;;;;;;;;;5034101;28;20048;-69
2023/04/19 05:40:43;;;;;;;13.52;10.48;;;;;;;;;;5056826;28;20117;-68
2023/04/19 05:43:10;;;;;;;12.45;9.45;;;;;;;;;;5039997;28;20129;-69
2023/04/19 05:45:36;;;;;;;16.95;9.80;;;;;;;;;;5035144;28;20036;-69
2023/04/19 05:48:01;;;;;;;16.77;9.63;;;;;;;;;;5052593;28;20072;-69
2023/04/19 05:50:26;;;;;;;12.85;8.95;;;;;;;;;;5053652;28;20048;-69
2023/04/19 05:52:54;;;;;;;16.33;9.45;;;;;;;;;;5041721;28;20051;-69
2023/04/19 05:55:19;;;;;;;12.95;9.23;;;;;;;;;;5058648;28;20040;-69
2023/04/19 05:57:47;;;;;;;11.90;8.43;;;;;;;;;;5054068;28;20071;-69
2023/04/19 06:00:12;;;;;;;12.13;8.43;;;;;;;;;;5022918;28;20032;-68
2023/04/19 06:02:37;;;;;;;12.93;8.70;;;;;;;;;;5035531;28;20499;-70
2023/04/19 06:05:06;;;;;;;14.82;8.43;;;;;;;;;;5059561;28;20412;-69
2023/04/19 06:07:33;;;;;;;12.48;8.65;;;;;;;;;;5040642;28;20036;-68
2023/04/19 06:10:01;;;;;;;12.45;8.40;;;;;;;;;;5055330;28;21373;-66
2023/04/19 06:12:26;;;;;;;12.10;7.60;;;;;;;;;;5057719;28;20044;-68
2023/04/19 06:14:52;;;;;;;13.80;7.93;;;;;;;;;;5043510;28;20396;-67
2023/04/19 06:17:22;;;;;;;11.18;7.70;;;;;;;;;;5060759;28;20083;-66
2023/04/19 06:19:47;;;;;;;14.70;7.78;;;;;;;;;;5059295;28;20075;-67
2023/04/19 06:22:13;;;;;;;10.93;7.63;;;;;;;;;;5060115;28;20309;-67
2023/04/19 06:24:38;;;;;;;12.93;7.55;;;;;;;;;;5061182;28;20044;-68
2023/04/19 06:27:03;;;;;;;11.07;7.97;;;;;;;;;;5037480;28;20041;-69
2023/04/19 06:29:28;;;;;;;11.98;7.72;;;;;;;;;;5037315;28;20105;-67
2023/04/19 06:31:54;;;;;;;12.52;7.97;;;;;;;;;;5058556;28;20047;-67
2023/04/19 06:34:21;;;;;;;12.13;7.80;;;;;;;;;;5060040;28;20070;-68
2023/04/19 06:36:46;;;;;;;10.77;7.50;;;;;;;;;;5058438;28;20102;-67
2023/04/19 06:39:12;;;;;;;13.50;8.07;;;;;;;;;;5056439;28;20044;-66
2023/04/19 06:41:37;;;;;;;12.18;7.50;;;;;;;;;;5037686;28;20128;-67
2023/04/19 06:44:02;;;;;;;11.15;7.45;;;;;;;;;;5053713;28;20104;-68
2023/04/19 06:46:27;;;;;;;9.38;6.88;;;;;;;;;;5056645;28;20043;-68
2023/04/19 06:48:53;;;;;;;10.65;7.57;;;;;;;;;;5055145;28;20073;-69
2023/04/19 06:51:18;;;;;;;10.18;7.00;;;;;;;;;;5057973;28;20040;-67
2023/04/19 06:53:44;;;;;;;11.90;6.80;;;;;;;;;;5057573;28;20235;-68
2023/04/19 06:56:09;;;;;;;9.50;6.68;;;;;;;;;;5057966;28;20039;-69
2023/04/19 06:58:37;;;;;;;7.85;6.13;;;;;;;;;;5057128;28;20344;-68
2023/04/19 07:01:05;;;;;;;12.07;6.43;;;;;;;;;;5056230;28;20458;-72
2023/04/19 07:03:30;;;;;;;11.35;6.57;;;;;;;;;;5038568;28;20432;-68
2023/04/19 07:05:56;;;;;;;8.27;6.47;;;;;;;;;;5056224;28;20032;-67
2023/04/19 07:08:22;;;;;;;9.57;6.32;;;;;;;;;;5054526;28;20740;-66
2023/04/19 07:10:47;;;;;;;8.75;6.50;;;;;;;;;;5043369;28;20059;-67
2023/04/19 07:13:13;;;;;;;9.77;5.93;;;;;;;;;;5036797;28;20043;-67
2023/04/19 07:15:40;;;;;;;10.27;6.25;;;;;;;;;;5054954;28;20040;-69
2023/04/19 07:18:06;;;;;;;12.35;6.38;;;;;;;;;;5054734;28;20093;-68
2023/04/19 07:20:31;;;;;;;7.25;5.68;;;;;;;;;;5058070;28;20040;-69
2023/04/19 07:22:59;;;;;;;10.15;6.38;;;;;;;;;;5037982;28;20108;-67
2023/04/19 07:25:25;;;;;;;8.93;5.35;;;;;;;;;;5033858;28;20107;-68
2023/04/19 07:27:54;;;;;;;8.85;5.68;;;;;;;;;;5055761;28;20521;-67
2023/04/19 07:30:19;;;;;;;7.38;5.90;;;;;;;;;;5056446;28;20404;-68
2023/04/19 07:32:45;;;;;;;10.18;6.00;;;;;;;;;;5056395;28;20044;-67
2023/04/19 07:35:10;;;;;;;9.20;6.10;;;;;;;;;;5033038;28;20715;-68
2023/04/19 07:37:36;;;;;;;8.30;5.63;;;;;;;;;;5057981;28;20041;-68
2023/04/19 07:40:04;;;;;;;10.57;5.25;;;;;;;;;;5055295;28;20299;-69
2023/04/19 07:42:32;;;;;;;5.95;5.05;;;;;;;;;;5052093;28;20031;-67
2023/04/19 07:44:59;;;;;;;11.30;5.93;;;;;;;;;;5052494;28;20071;-68
2023/04/19 07:47:24;;;;;;;8.68;5.97;;;;;;;;;;5027747;28;20040;-67
2023/04/19 07:49:50;;;;;;;10.10;4.95;;;;;;;;;;5054944;28;20107;-66
2023/04/19 07:52:17;;;;;;;10.73;5.50;;;;;;;;;;5055935;28;20056;-67
2023/04/19 07:54:42;;;;;;;6.97;5.07;;;;;;;;;;5053357;28;20477;-70
2023/04/19 07:57:07;;;;;;;9.25;4.75;;;;;;;;;;5033632;28;20036;-68
2023/04/19 07:59:33;;;;;;;9.98;5.47;;;;;;;;;;5033374;28;20147;-68
2023/04/19 08:01:58;;;;;;;7.38;5.15;;;;;;;;;;5050793;28;20159;-67
2023/04/19 08:04:23;;;;;;;7.95;4.95;;;;;;;;;;5053647;28;20038;-68
2023/04/19 08:06:49;;;;;;;6.93;4.80;;;;;;;;;;5031254;28;20043;-67
2023/04/19 08:09:14;;;;;;;9.85;4.90;;;;;;;;;;5029764;28;20101;-70
2023/04/19 08:11:39;;;;;;;7.43;4.60;;;;;;;;;;5051263;28;20039;-70
2023/04/19 08:14:05;;;;;;;6.93;4.38;;;;;;;;;;5051838;28;20036;-68
2023/04/19 08:16:30;;;;;;;7.82;4.90;;;;;;;;;;5030181;28;20051;-68
2023/04/19 08:18:55;;;;;;;7.65;3.90;;;;;;;;;;5051245;28;20421;-65
2023/04/19 08:21:20;;;;;;;8.32;4.25;;;;;;;;;;5052210;28;20044;-68
2023/04/19 08:23:46;;;;;;;10.05;4.55;;;;;;;;;;5052729;28;20051;-68
2023/04/19 08:26:11;;;;;;;6.00;3.90;;;;;;;;;;5051901;28;20063;-69
2023/04/19 08:28:37;;;;;;;7.35;4.30;;;;;;;;;;5052222;28;20082;-69
2023/04/19 08:31:04;;;;;;;8.45;3.95;;;;;;;;;;5056623;28;20240;-66
2023/04/19 08:33:32;;;;;;;5.80;4.00;;;;;;;;;;5052672;28;20063;-66
2023/04/19 08:35:57;;;;;;;6.53;4.22;;;;;;;;;;5036311;28;20040;-70
2023/04/19 08:38:22;;;;;;;5.72;3.88;;;;;;;;;;5058224;28;20047;-67
2023/04/19 08:40:50;;;;;;;6.95;3.60;;;;;;;;;;5057481;28;20039;-70
2023/04/19 08:43:18;;;;;;;5.65;3.80;;;;;;;;;;5049222;28;20038;-67
2023/04/19 08:45:46;;;;;;;9.10;3.92;;;;;;;;;;5040229;28;20143;-63
2023/04/19 08:48:13;;;;;;;4.88;3.22;;;;;;;;;;5055459;28;20089;-68
2023/04/19 08:50:40;;;;;;;5.72;3.47;;;;;;;;;;5056124;28;20040;-69
2023/04/19 08:53:06;;;;;;;9.35;3.13;;;;;;;;;;5056500;28;20048;-67
2023/04/19 08:55:32;;;;;;;4.90;2.90;;;;;;;;;;5055612;28;20892;-66
2023/04/19 08:57:57;;;;;;;7.68;3.17;;;;;;;;;;5038664;28;20039;-64
2023/04/19 09:00:22;;;;;;;6.00;2.67;;;;;;;;;;5054881;28;20064;-68
2023/04/19 09:02:49;;;;;;;4.82;2.97;;;;;;;;;;5057414;28;20110;-69
2023/04/19 09:05:15;;;;;;;5.82;3.00;;;;;;;;;;5040613;28;20032;-66
2023/04/19 09:07:41;;;;;;;6.20;2.67;;;;;;;;;;5054559;28;20033;-68
2023/04/19 09:10:07;;;;;;;6.75;2.85;;;;;;;;;;5054433;28;20040;-68
2023/04/19 09:12:35;;;;;;;3.92;2.83;;;;;;;;;;5051968;28;20051;-67
2023/04/19 09:15:03;;;;;;;6.22;2.85;;;;;;;;;;5059414;28;20068;-67
2023/04/19 09:17:29;;;;;;;4.72;2.80;;;;;;;;;;5055000;28;20036;-70
2023/04/19 09:19:54;;;;;;;7.30;3.22;;;;;;;;;;5041243;28;20048;-71
2023/04/19 09:22:20;;;;;;;5.47;3.30;;;;;;;;;;5055838;28;21066;-68
2023/04/19 09:24:45;;;;;;;5.13;3.30;;;;;;;;;;5058016;28;20048;-64
2023/04/19 09:27:13;;;;;;;5.47;3.03;;;;;;;;;;5052362;28;20042;-69
2023/04/19 09:29:39;;;;;;;5.07;3.08;;;;;;;;;;5048116;28;20099;-73
2023/04/19 09:32:04;;;;;;;5.03;2.88;;;;;;;;;;5056619;28;20059;-69
2023/04/19 09:34:30;;;;;;;5.50;3.00;;;;;;;;;;5040555;28;20055;-72
2023/04/19 09:36:55;;;;;;;4.80;2.78;;;;;;;;;;5059981;28;20064;-68
2023/04/19 09:39:35;;;;;;;5.43;2.83;;;;;;;;;;5060063;28;20064;-68
2023/04/19 09:42:00;;;;;;;5.45;3.17;;;;;;;;;;5039076;28;20375;-69
2023/04/19 09:44:27;;;;;;;5.22;3.20;;;;;;;;;;5061506;28;20032;-66
2023/04/19 09:46:52;;;;;;;6.45;3.47;;;;;;;;;;5037257;28;20032;-68
2023/04/19 09:49:18;;;;;;;5.28;3.20;;;;;;;;;;5059726;28;20032;-66
2023/04/19 09:51:45;;;;;;;6.43;3.30;;;;;;;;;;5059799;28;20298;-67
2023/04/19 09:54:11;;;;;;;4.88;3.10;;;;;;;;;;5061055;28;20037;-69
2023/04/19 09:56:39;;;;;;;3.83;2.83;;;;;;;;;;5057393;28;20507;-67
2023/04/19 09:59:07;;;;;;;5.95;3.00;;;;;;;;;;5061682;28;20040;-68
2023/04/19 10:01:52;;;;;;;5.38;3.25;;;;;;;;;;5041951;28;20043;-67
2023/04/19 10:04:21;;;;;;;6.82;3.00;;;;;;;;;;5060017;28;20047;-68
2023/04/19 10:06:50;;;;;;;6.43;2.70;;;;;;;;;;5059860;28;20036;-67
2023/04/19 10:09:16;;;;;;;5.35;2.58;;;;;;;;;;5057889;28;20519;-66
2023/04/19 10:11:42;;;;;;;4.07;2.30;;;;;;;;;;5057775;28;20044;-66
2023/04/19 10:14:08;;;;;;;7.18;2.38;;;;;;;;;;5059769;28;20043;-66
2023/04/19 10:16:35;;;;;;;4.43;2.40;;;;;;;;;;5061653;28;20044;-66
2023/04/19 10:19:04;;;;;;;4.40;2.47;;;;;;;;;;5040560;28;20110;-69
2023/04/19 10:21:30;;;;;;;4.22;2.25;;;;;;;;;;5041145;28;20047;-67
2023/04/19 10:23:56;;;;;;;7.88;2.53;;;;;;;;;;5059419;28;20032;-67
2023/04/19 10:26:22;;;;;;;4.57;2.00;;;;;;;;;;5058153;28;20143;-68
2023/04/19 10:28:47;;;;;;;3.45;1.90;;;;;;;;;;5057824;28;20527;-68
2023/04/19 10:31:13;;;;;;;2.97;2.05;;;;;;;;;;5036688;28;20032;-64
2023/04/19 10:33:39;;;;;;;3.67;2.15;;;;;;;;;;5055929;28;20202;-68
2023/04/19 10:36:07;;;;;;;3.80;2.17;;;;;;;;;;5053593;28;20155;-68
2023/04/19 10:38:41;;;;;;;3.45;1.80;;;;;;;;;;5041468;28;20036;-67
2023/04/19 10:41:10;;;;;;;3.50;2.28;;;;;;;;;;5061503;28;20167;-67
2023/04/19 10:43:39;;;;;;;5.13;2.28;;;;;;;;;;5039549;28;20051;-69
2023/04/19 10:46:28;;;;;;;4.65;1.92;;;;;;;;;;5057333;28;20497;-65
2023/04/19 10:48:54;;;;;;;6.03;2.38;;;;;;;;;;5031491;28;20571;-69
2023/04/19 10:51:26;;;;;;;3.10;2.00;;;;;;;;;;5060140;28;20036;-67
2023/04/19 10:53:51;;;;;;;7.20;2.50;;;;;;;;;;5060364;28;20047;-66
2023/04/19 10:56:22;;;;;;;6.60;2.22;;;;;;;;;;5040521;28;20128;-73
2023/04/19 10:59:20;;;;;;;4.50;2.50;;;;;;;;;;5059223;28;20081;-69
2023/04/19 11:01:46;;;;;;;3.95;2.30;;;;;;;;;;5031253;28;20043;-68
2023/04/19 11:04:12;;;;;;;4.30;2.55;;;;;;;;;;5035635;28;20057;-69
2023/04/19 11:06:55;;;;;;;5.65;2.63;;;;;;;;;;5036746;28;20101;-67
2023/04/19 11:09:30;;;;;;;4.60;2.65;;;;;;;;;;5056763;28;20041;-68
2023/04/19 11:12:09;;;;;;;5.78;2.72;;;;;;;;;;5058089;28;20044;-70
2023/04/19 11:14:36;;;;;;;5.32;2.67;;;;;;;;;;5059855;28;20113;-67
2023/04/19 11:17:14;;;;;;;5.25;2.40;;;;;;;;;;5057347;28;20032;-66
2023/04/19 11:19:41;;;;;;;3.80;2.63;;;;;;;;;;5058727;28;20033;-66
2023/04/19 11:22:06;;;;;;;5.72;2.70;;;;;;;;;;5056465;28;20039;-67
2023/04/19 11:24:36;;;;;;;6.70;3.00;;;;;;;;;;5058447;28;20067;-67
2023/04/19 11:27:06;;;;;;;6.60;2.88;;;;;;;;;;5059010;28;20520;-63
2023/04/19 11:29:32;;;;;;;8.57;3.25;;;;;;;;;;5059973;28;20041;-66
2023/04/19 11:31:58;;;;;;;6.00;3.00;;;;;;;;;;5056289;28;20669;-64
2023/04/19 11:34:24;;;;;;;5.28;3.05;;;;;;;;;;5060017;28;20040;-63
2023/04/19 11:36:52;;;;;;;6.88;3.20;;;;;;;;;;5053475;28;20043;-65
2023/04/19 11:39:18;;;;;;;7.55;3.30;;;;;;;;;;5036360;28;20040;-68
2023/04/19 11:41:43;;;;;;;8.70;3.13;;;;;;;;;;5055445;28;20039;-68
2023/04/19 11:44:12;;;;;;;5.25;3.22;;;;;;;;;;5060522;28;22113;-68
2023/04/19 11:46:37;;;;;;;6.22;3.20;;;;;;;;;;5036633;28;20039;-70
2023/04/19 11:49:06;;;;;;;6.78;3.30;;;;;;;;;;5059511;28;20033;-66
2023/04/19 11:51:31;;;;;;;8.55;3.50;;;;;;;;;;5037450;28;20085;-66
2023/04/19 11:53:56;;;;;;;7.38;3.47;;;;;;;;;;5056660;28;20055;-68
2023/04/19 11:56:22;;;;;;;5.93;2.95;;;;;;;;;;5058745;28;20037;-70
2023/04/19 11:58:48;;;;;;;4.75;3.38;;;;;;;;;;5056430;28;20038;-71
2023/04/19 12:01:14;;;;;;;6.72;3.17;;;;;;;;;;5058132;28;20656;-70
2023/04/19 12:03:46;;;;;;;4.72;3.53;;;;;;;;;;5057365;28;20043;-68
2023/04/19 12:06:13;;;;;;;6.28;3.40;;;;;;;;;;5040410;28;20601;-69
2023/04/19 12:08:45;;;;;;;4.97;3.05;;;;;;;;;;5058637;28;20037;-68
2023/04/19 12:11:14;;;;;;;5.50;3.05;;;;;;;;;;5055904;28;20028;-68
2023/04/19 12:13:39;;;;;;;6.38;3.20;;;;;;;;;;5041831;28;20136;-66
2023/04/19 12:16:05;;;;;;;8.10;3.30;;;;;;;;;;5057512;28;20098;-70
2023/04/19 12:18:43;;;;;;;6.72;3.35;;;;;;;;;;5057940;28;20300;-68
2023/04/19 12:21:10;;;;;;;4.30;2.72;;;;;;;;;;5059796;28;20139;-68
2023/04/19 12:23:35;;;;;;;4.00;2.70;;;;;;;;;;5059395;28;20040;-67
2023/04/19 12:26:04;;;;;;;3.75;2.72;;;;;;;;;;5041482;28;20059;-67
2023/04/19 12:28:29;;;;;;;4.65;2.50;;;;;;;;;;5056828;28;20059;-69
2023/04/19 12:30:54;;;;;;;5.75;2.75;;;;;;;;;;5058862;28;20040;-69
2023/04/19 12:33:20;;;;;;;5.28;2.80;;;;;;;;;;5056523;28;20079;-69
2023/04/19 12:35:45;;;;;;;4.00;2.80;;;;;;;;;;5056626;28;20036;-70
2023/04/19 12:38:10;;;;;;;3.72;2.30;;;;;;;;;;5036243;28;20062;-68
2023/04/19 12:40:38;;;;;;;4.60;2.53;;;;;;;;;;5036149;28;20032;-69
2023/04/19 12:43:05;;;;;;;6.60;3.15;;;;;;;;;;5054404;28;20036;-67
2023/04/19 12:45:30;;;;;;;6.40;2.53;;;;;;;;;;5036369;28;20024;-67
2023/04/19 12:47:56;;;;;;;6.55;2.50;;;;;;;;;;5055718;28;20786;-70
2023/04/19 12:50:21;;;;;;;5.95;2.60;;;;;;;;;;5054588;28;20036;-71
2023/04/19 12:52:46;;;;;;;4.10;2.75;;;;;;;;;;5056745;28;20048;-71
2023/04/19 12:55:12;;;;;;;4.47;2.33;;;;;;;;;;5051930;28;20050;-71
2023/04/19 12:57:39;;;;;;;4.30;2.63;;;;;;;;;;5058138;28;20263;-69
2023/04/19 13:00:06;;;;;;;7.07;2.75;;;;;;;;;;5059729;28;20032;-68
2023/04/19 13:02:32;;;;;;;5.07;2.58;;;;;;;;;;5058119;28;20036;-69
2023/04/19 13:04:57;;;;;;;5.10;2.90;;;;;;;;;;5059964;28;20036;-68
2023/04/19 13:07:23;;;;;;;6.30;2.65;;;;;;;;;;5061941;28;20039;-69
2023/04/19 13:09:48;;;;;;;6.70;2.70;;;;;;;;;;5062375;28;20068;-69
2023/04/19 13:12:13;;;;;;;5.25;2.60;;;;;;;;;;5064570;28;20122;-70
2023/04/19 13:14:39;;;;;;;7.00;2.20;;;;;;;;;;5063241;28;20528;-70
2023/04/19 13:17:04;;;;;;;5.07;2.65;;;;;;;;;;5060313;28;20448;-73
2023/04/19 13:19:29;;;;;;;3.80;2.55;;;;;;;;;;5062723;28;20032;-69
2023/04/19 13:21:55;;;;;;;3.97;2.28;;;;;;;;;;5048534;28;20044;-76
2023/04/19 13:24:20;;;;;;;5.13;2.38;;;;;;;;;;5047985;28;20036;-72
2023/04/19 13:26:46;;;;;;;4.18;2.25;;;;;;;;;;5058358;28;20130;-69
2023/04/19 13:29:11;;;;;;;3.97;2.10;;;;;;;;;;5044389;28;20040;-70
2023/04/19 13:31:37;;;;;;;3.63;2.17;;;;;;;;;;5061215;28;20043;-73
2023/04/19 13:34:02;;;;;;;4.03;2.53;;;;;;;;;;5038535;28;20035;-72
2023/04/19 13:36:30;;;;;;;6.55;1.95;;;;;;;;;;5058209;28;20283;-71
2023/04/19 13:38:55;;;;;;;5.28;2.17;;;;;;;;;;5061873;28;20232;-70
2023/04/19 13:41:20;;;;;;;6.85;2.28;;;;;;;;;;5056341;28;20254;-68
2023/04/19 13:43:48;;;;;;;6.05;2.05;;;;;;;;;;5037273;28;20027;-67
2023/04/19 13:46:14;;;;;;;5.10;1.70;;;;;;;;;;5054800;28;20050;-69
2023/04/19 13:48:39;;;;;;;3.13;1.80;;;;;;;;;;5037113;28;20031;-70
2023/04/19 13:51:05;;;;;;;3.15;1.50;;;;;;;;;;5060140;28;20027;-70
2023/04/19 13:53:30;;;;;;;5.43;1.80;;;;;;;;;;5037697;28;20051;-69
2023/04/19 13:55:56;;;;;;;5.28;1.67;;;;;;;;;;5035148;28;20039;-70
2023/04/19 13:58:23;;;;;;;2.85;1.73;;;;;;;;;;5057743;28;20028;-71
2023/04/19 14:00:48;;;;;;;5.32;1.65;;;;;;;;;;5061173;28;20059;-72
2023/04/19 14:03:14;;;;;;;8.00;1.80;;;;;;;;;;5046053;28;20032;-72
2023/04/19 14:05:44;;;;;;;4.15;1.70;;;;;;;;;;5038824;28;20511;-72
2023/04/19 14:08:09;;;;;;;3.88;1.60;;;;;;;;;;5060705;28;20036;-72
2023/04/19 14:10:35;;;;;;;3.70;1.70;;;;;;;;;;5065807;28;20044;-73
2023/04/19 14:13:01;;;;;;;4.13;1.75;;;;;;;;;;5063625;28;20051;-74
2023/04/19 14:15:26;;;;;;;5.40;2.00;;;;;;;;;;5061010;28;20036;-75
2023/04/19 14:17:54;;;;;;;3.88;1.73;;;;;;;;;;5065716;28;20036;-71
2023/04/19 14:20:19;;;;;;;4.35;2.13;;;;;;;;;;5070084;28;20070;-71
2023/04/19 14:22:44;;;;;;;2.92;1.90;;;;;;;;;;5068416;28;20143;-74
2023/04/19 14:25:13;;;;;;;5.28;1.80;;;;;;;;;;5062604;28;20067;-70
2023/04/19 14:27:39;;;;;;;5.25;2.00;;;;;;;;;;5059851;28;20051;-73